createdAt,value
2019-05-05T00:00:36.447Z,4.82
2019-05-05T00:01:36.433Z,4.83
2019-05-05T00:02:36.422Z,4.75
2019-05-05T00:03:38.032Z,4.72
2019-05-05T00:04:36.402Z,4.64
2019-05-05T00:05:38.034Z,4.72
2019-05-05T00:06:36.377Z,4.69
2019-05-05T00:07:36.377Z,4.69
2019-05-05T00:08:36.359Z,4.69
2019-05-05T00:09:36.351Z,4.71
2019-05-05T00:10:36.335Z,4.74
2019-05-05T00:11:36.319Z,4.64
2019-05-05T00:12:38.037Z,4.69
2019-05-05T00:13:36.305Z,4.71
2019-05-05T00:14:36.284Z,4.71
2019-05-05T00:15:36.282Z,4.64
2019-05-05T00:16:36.266Z,4.71
2019-05-05T00:17:36.252Z,4.69
2019-05-05T00:18:36.240Z,4.67
2019-05-05T00:19:36.228Z,4.67
2019-05-05T00:20:36.220Z,4.71
2019-05-05T00:21:38.045Z,4.74
2019-05-05T00:22:36.198Z,4.66
2019-05-05T00:23:38.041Z,4.64
2019-05-05T00:24:38.039Z,4.83
2019-05-05T00:25:36.158Z,4.75
2019-05-05T00:26:36.147Z,4.75
2019-05-05T00:27:36.145Z,4.88
2019-05-05T00:28:36.131Z,4.82
2019-05-05T00:29:36.119Z,4.82
2019-05-05T00:30:36.108Z,4.86
2019-05-05T00:31:36.093Z,4.89
2019-05-05T00:32:36.079Z,4.78
2019-05-05T00:33:38.045Z,4.79
2019-05-05T00:34:38.044Z,4.85
2019-05-05T00:35:36.049Z,4.88
2019-05-05T00:36:36.037Z,4.88
2019-05-05T00:37:36.020Z,4.83
2019-05-05T00:38:36.010Z,4.86
2019-05-05T00:39:37.546Z,4.88
2019-05-05T00:40:35.991Z,4.89
2019-05-05T00:41:35.978Z,4.83
2019-05-05T00:42:35.967Z,4.83
2019-05-05T00:43:35.952Z,4.96
2019-05-05T00:44:35.942Z,4.94
2019-05-05T00:45:35.930Z,4.94
2019-05-05T00:46:35.918Z,4.86
2019-05-05T00:47:35.911Z,4.85
2019-05-05T00:48:35.899Z,4.85
2019-05-05T00:49:45.577Z,4.89
2019-05-05T00:50:35.883Z,4.91
2019-05-05T00:51:35.860Z,4.86
2019-05-05T00:52:35.851Z,4.85
2019-05-05T00:53:35.841Z,4.85
2019-05-05T00:54:35.829Z,4.83
2019-05-05T00:55:35.814Z,4.83
2019-05-05T00:56:35.806Z,4.89
2019-05-05T00:57:35.791Z,4.86
2019-05-05T00:58:35.783Z,4.88
2019-05-05T00:59:35.776Z,4.96
2019-05-05T01:00:35.763Z,4.93
2019-05-05T01:01:35.750Z,4.97
2019-05-05T01:02:35.745Z,4.85
2019-05-05T01:03:35.725Z,4.89
2019-05-05T01:04:35.713Z,4.97
2019-05-05T01:05:35.701Z,4.96
2019-05-05T01:06:35.694Z,4.85
2019-05-05T01:07:35.680Z,4.82
2019-05-05T01:08:37.556Z,4.85
2019-05-05T01:09:35.656Z,4.88
2019-05-05T01:10:35.644Z,4.82
2019-05-05T01:11:35.694Z,4.88
2019-05-05T01:12:35.623Z,4.94
2019-05-05T01:13:35.616Z,4.83
2019-05-05T01:14:35.601Z,4.88
2019-05-05T01:15:35.587Z,4.89
2019-05-05T01:16:35.578Z,4.89
2019-05-05T01:17:35.565Z,4.94
2019-05-05T01:18:35.551Z,4.89
2019-05-05T01:19:35.544Z,4.85
2019-05-05T01:20:35.537Z,4.86
2019-05-05T01:21:35.520Z,4.85
2019-05-05T01:22:35.511Z,4.86
2019-05-05T01:23:35.494Z,4.91
2019-05-05T01:24:35.483Z,4.82
2019-05-05T01:25:35.476Z,4.86
2019-05-05T01:26:35.526Z,4.86
2019-05-05T01:27:35.451Z,4.86
2019-05-05T01:28:35.675Z,4.97
2019-05-05T01:29:35.424Z,4.94
2019-05-05T01:30:35.415Z,4.93
2019-05-05T01:31:37.065Z,4.97
2019-05-05T01:32:35.395Z,4.94
2019-05-05T01:33:37.065Z,4.91
2019-05-05T01:34:35.372Z,4.86
2019-05-05T01:35:35.357Z,4.94
2019-05-05T01:36:35.348Z,4.93
2019-05-05T01:37:35.342Z,5.01
2019-05-05T01:38:35.322Z,4.96
2019-05-05T01:39:37.066Z,5.00
2019-05-05T01:40:35.429Z,4.93
2019-05-05T01:41:35.290Z,4.83
2019-05-05T01:42:35.352Z,4.82
2019-05-05T01:43:35.272Z,4.85
2019-05-05T01:44:35.360Z,5.04
2019-05-05T01:45:35.248Z,4.97
2019-05-05T01:46:35.466Z,4.91
2019-05-05T01:47:35.230Z,5.00
2019-05-05T01:48:35.244Z,5.01
2019-05-05T01:49:35.200Z,5.03
2019-05-05T01:50:35.186Z,5.04
2019-05-05T01:51:35.538Z,4.97
2019-05-05T01:52:35.165Z,4.94
2019-05-05T01:53:35.156Z,4.89
2019-05-05T01:54:35.404Z,4.96
2019-05-05T01:55:35.130Z,4.86
2019-05-05T01:56:35.339Z,4.89
2019-05-05T01:57:35.111Z,4.88
2019-05-05T01:58:35.096Z,4.93
2019-05-05T01:59:35.416Z,4.91
2019-05-05T02:00:36.573Z,4.88
2019-05-05T02:01:35.277Z,4.79
2019-05-05T02:02:35.051Z,4.83
2019-05-05T02:03:36.573Z,4.79
2019-05-05T02:04:35.029Z,4.83
2019-05-05T02:05:35.052Z,4.85
2019-05-05T02:06:36.574Z,4.79
2019-05-05T02:07:34.991Z,4.91
2019-05-05T02:08:35.140Z,4.86
2019-05-05T02:09:35.480Z,4.71
2019-05-05T02:10:35.059Z,4.79
2019-05-05T02:11:35.361Z,4.85
2019-05-05T02:12:35.338Z,4.83
2019-05-05T02:13:34.926Z,4.67
2019-05-05T02:14:35.316Z,4.71
2019-05-05T02:15:34.905Z,4.66
2019-05-05T02:16:34.915Z,4.71
2019-05-05T02:17:35.321Z,4.71
2019-05-05T02:18:34.867Z,4.66
2019-05-05T02:19:35.157Z,4.69
2019-05-05T02:20:34.842Z,4.66
2019-05-05T02:21:35.410Z,4.66
2019-05-05T02:22:35.623Z,4.49
2019-05-05T02:23:35.328Z,4.53
2019-05-05T02:24:35.380Z,4.59
2019-05-05T02:25:34.786Z,4.56
2019-05-05T02:26:35.094Z,4.53
2019-05-05T02:27:34.767Z,4.53
2019-05-05T02:28:34.791Z,4.53
2019-05-05T02:29:35.351Z,4.49
2019-05-05T02:30:35.940Z,4.53
2019-05-05T02:31:36.014Z,4.43
2019-05-05T02:32:36.207Z,4.51
2019-05-05T02:33:35.456Z,4.48
2019-05-05T02:34:35.902Z,4.49
2019-05-05T02:35:35.332Z,4.56
2019-05-05T02:36:35.453Z,4.43
2019-05-05T02:37:35.720Z,4.38
2019-05-05T02:38:35.519Z,4.43
2019-05-05T02:39:38.063Z,4.48
2019-05-05T02:40:35.098Z,4.51
2019-05-05T02:41:34.881Z,4.53
2019-05-05T02:42:35.413Z,4.42
2019-05-05T02:43:34.679Z,4.42
2019-05-05T02:44:34.830Z,4.43
2019-05-05T02:45:35.373Z,4.36
2019-05-05T02:46:35.761Z,4.39
2019-05-05T02:47:35.012Z,4.39
2019-05-05T02:48:35.468Z,4.41
2019-05-05T02:49:35.267Z,4.41
2019-05-05T02:50:51.044Z,4.48
2019-05-05T02:51:35.458Z,4.49
2019-05-05T02:52:34.808Z,4.48
2019-05-05T02:53:34.458Z,4.48
2019-05-05T02:54:34.445Z,4.42
2019-05-05T02:55:34.808Z,4.31
2019-05-05T02:56:34.426Z,4.27
2019-05-05T02:57:34.602Z,4.36
2019-05-05T02:58:34.404Z,4.34
2019-05-05T02:59:35.295Z,4.36
2019-05-05T03:00:34.523Z,4.48
2019-05-05T03:01:34.370Z,4.35
2019-05-05T03:02:35.314Z,4.27
2019-05-05T03:03:34.400Z,4.39
2019-05-05T03:04:34.330Z,4.21
2019-05-05T03:05:34.317Z,4.27
2019-05-05T03:06:34.384Z,4.30
2019-05-05T03:07:34.471Z,4.24
2019-05-05T03:08:34.286Z,4.27
2019-05-05T03:09:34.745Z,4.30
2019-05-05T03:10:34.262Z,4.27
2019-05-05T03:11:34.433Z,4.21
2019-05-05T03:12:34.670Z,4.26
2019-05-05T03:13:34.224Z,4.18
2019-05-05T03:14:34.222Z,4.20
2019-05-05T03:15:34.202Z,4.12
2019-05-05T03:16:34.214Z,4.10
2019-05-05T03:17:34.233Z,4.09
2019-05-05T03:18:36.097Z,4.17
2019-05-05T03:19:34.156Z,4.10
2019-05-05T03:20:34.403Z,4.17
2019-05-05T03:21:34.133Z,4.20
2019-05-05T03:22:34.199Z,4.08
2019-05-05T03:23:34.106Z,4.02
2019-05-05T03:24:34.237Z,4.05
2019-05-05T03:25:34.082Z,4.02
2019-05-05T03:26:34.150Z,4.02
2019-05-05T03:27:34.202Z,4.12
2019-05-05T03:28:34.482Z,4.10
2019-05-05T03:29:34.038Z,4.10
2019-05-05T03:30:35.545Z,4.03
2019-05-05T03:31:35.603Z,3.96
2019-05-05T03:32:36.069Z,3.96
2019-05-05T03:33:35.195Z,3.98
2019-05-05T03:34:34.398Z,4.03
2019-05-05T03:35:34.569Z,4.02
2019-05-05T03:36:34.042Z,3.90
2019-05-05T03:37:34.426Z,3.94
2019-05-05T03:38:33.930Z,3.91
2019-05-05T03:39:34.156Z,3.92
2019-05-05T03:40:34.393Z,3.87
2019-05-05T03:41:34.425Z,3.85
2019-05-05T03:42:33.966Z,3.88
2019-05-05T03:43:34.350Z,3.96
2019-05-05T03:44:33.865Z,3.87
2019-05-05T03:45:34.232Z,3.87
2019-05-05T03:46:34.439Z,3.87
2019-05-05T03:47:33.867Z,3.81
2019-05-05T03:48:34.615Z,3.87
2019-05-05T03:49:33.919Z,3.84
2019-05-05T03:50:34.114Z,3.88
2019-05-05T03:51:34.523Z,3.92
2019-05-05T03:52:34.605Z,3.82
2019-05-05T03:53:33.850Z,3.76
2019-05-05T03:54:34.251Z,3.94
2019-05-05T03:55:35.608Z,3.90
2019-05-05T03:56:34.720Z,3.78
2019-05-05T03:57:33.938Z,3.88
2019-05-05T03:58:34.441Z,3.74
2019-05-05T03:59:33.680Z,3.73
2019-05-05T04:00:34.062Z,3.78
2019-05-05T04:01:34.634Z,3.76
2019-05-05T04:02:34.144Z,3.70
2019-05-05T04:03:35.611Z,3.72
2019-05-05T04:04:35.610Z,3.82
2019-05-05T04:05:34.114Z,3.94
2019-05-05T04:06:34.010Z,3.76
2019-05-05T04:07:33.589Z,3.85
2019-05-05T04:08:33.979Z,3.78
2019-05-05T04:09:34.566Z,3.74
2019-05-05T04:10:33.577Z,3.70
2019-05-05T04:11:33.884Z,3.84
2019-05-05T04:12:34.569Z,3.84
2019-05-05T04:13:34.448Z,3.76
2019-05-05T04:14:34.738Z,3.91
2019-05-05T04:15:33.782Z,3.74
2019-05-05T04:16:34.222Z,3.73
2019-05-05T04:17:33.715Z,3.84
2019-05-05T04:18:34.150Z,3.80
2019-05-05T04:19:34.271Z,3.87
2019-05-05T04:20:33.836Z,3.85
2019-05-05T04:21:36.481Z,3.88
2019-05-05T04:22:34.374Z,3.94
2019-05-05T04:23:33.558Z,3.98
2019-05-05T04:24:34.141Z,3.98
2019-05-05T04:25:34.973Z,3.82
2019-05-05T04:26:33.622Z,3.78
2019-05-05T04:27:34.304Z,3.76
2019-05-05T04:28:34.580Z,3.74
2019-05-05T04:29:34.497Z,3.84
2019-05-05T04:30:33.816Z,3.80
2019-05-05T04:31:34.578Z,3.90
2019-05-05T04:32:34.841Z,3.91
2019-05-05T04:33:35.122Z,3.91
2019-05-05T04:34:34.767Z,3.81
2019-05-05T04:35:33.936Z,3.84
2019-05-05T04:36:34.050Z,3.91
2019-05-05T04:37:34.130Z,3.91
2019-05-05T04:38:34.821Z,3.92
2019-05-05T04:39:34.281Z,3.91
2019-05-05T04:40:34.518Z,3.84
2019-05-05T04:41:33.755Z,3.90
2019-05-05T04:42:33.690Z,3.91
2019-05-05T04:43:33.833Z,3.91
2019-05-05T04:44:34.570Z,3.94
2019-05-05T04:45:34.691Z,3.90
2019-05-05T04:46:33.838Z,3.91
2019-05-05T04:47:34.270Z,3.92
2019-05-05T04:48:34.554Z,3.94
2019-05-05T04:49:34.001Z,4.00
2019-05-05T04:50:34.549Z,3.99
2019-05-05T04:51:46.246Z,3.96
2019-05-05T04:52:34.360Z,3.90
2019-05-05T04:53:34.714Z,3.96
2019-05-05T04:54:33.514Z,4.02
2019-05-05T04:55:33.736Z,4.02
2019-05-05T04:56:34.312Z,4.06
2019-05-05T04:57:32.992Z,4.21
2019-05-05T04:58:34.628Z,4.17
2019-05-05T04:59:34.016Z,4.16
2019-05-05T05:00:34.208Z,4.26
2019-05-05T05:01:33.536Z,4.27
2019-05-05T05:02:34.130Z,4.23
2019-05-05T05:03:34.693Z,4.26
2019-05-05T05:04:33.623Z,4.43
2019-05-05T05:05:33.730Z,4.45
2019-05-05T05:06:34.193Z,4.60
2019-05-05T05:07:34.474Z,4.54
2019-05-05T05:08:33.832Z,4.67
2019-05-05T05:09:34.159Z,4.69
2019-05-05T05:10:34.630Z,4.88
2019-05-05T05:11:33.653Z,4.78
2019-05-05T05:12:34.185Z,4.94
2019-05-05T05:13:34.668Z,4.86
2019-05-05T05:14:33.736Z,4.89
2019-05-05T05:15:34.071Z,5.00
2019-05-05T05:16:32.777Z,5.12
2019-05-05T05:17:33.816Z,5.12
2019-05-05T05:18:34.390Z,5.09
2019-05-05T05:19:33.537Z,5.18
2019-05-05T05:20:34.002Z,5.30
2019-05-05T05:21:34.226Z,5.44
2019-05-05T05:22:34.632Z,5.48
2019-05-05T05:23:34.083Z,5.48
2019-05-05T05:24:34.324Z,5.54
2019-05-05T05:25:34.463Z,5.58
2019-05-05T05:26:33.580Z,5.69
2019-05-05T05:27:33.578Z,5.73
2019-05-05T05:28:34.229Z,5.79
2019-05-05T05:29:34.399Z,5.82
2019-05-05T05:30:34.500Z,5.82
2019-05-05T05:31:33.710Z,5.90
2019-05-05T05:32:34.010Z,5.97
2019-05-05T05:33:34.467Z,5.88
2019-05-05T05:34:34.550Z,6.00
2019-05-05T05:35:33.572Z,6.03
2019-05-05T05:36:33.834Z,6.12
2019-05-05T05:37:34.285Z,6.05
2019-05-05T05:38:34.433Z,6.05
2019-05-05T05:39:33.608Z,6.19
2019-05-05T05:40:34.228Z,6.16
2019-05-05T05:41:34.325Z,6.15
2019-05-05T05:42:33.594Z,6.21
2019-05-05T05:43:33.481Z,6.16
2019-05-05T05:44:33.845Z,6.24
2019-05-05T05:45:34.251Z,6.25
2019-05-05T05:46:33.415Z,6.27
2019-05-05T05:47:33.856Z,6.32
2019-05-05T05:48:34.201Z,6.28
2019-05-05T05:49:34.505Z,6.34
2019-05-05T05:50:33.918Z,6.37
2019-05-05T05:51:34.263Z,6.42
2019-05-05T05:52:34.270Z,6.37
2019-05-05T05:53:32.387Z,6.49
2019-05-05T05:54:34.019Z,6.38
2019-05-05T05:55:34.311Z,6.37
2019-05-05T05:56:34.176Z,6.46
2019-05-05T05:57:34.436Z,6.43
2019-05-05T05:58:33.742Z,6.50
2019-05-05T05:59:33.950Z,6.53
2019-05-05T06:00:34.178Z,6.61
2019-05-05T06:01:34.416Z,6.57
2019-05-05T06:02:33.494Z,6.52
2019-05-05T06:03:33.958Z,6.65
2019-05-05T06:04:34.007Z,6.67
2019-05-05T06:05:34.134Z,6.71
2019-05-05T06:06:34.668Z,6.68
2019-05-05T06:07:33.600Z,6.75
2019-05-05T06:08:34.074Z,6.70
2019-05-05T06:09:34.270Z,6.71
2019-05-05T06:10:33.873Z,6.85
2019-05-05T06:11:34.295Z,6.86
2019-05-05T06:12:34.155Z,6.88
2019-05-05T06:13:33.656Z,6.83
2019-05-05T06:14:34.173Z,6.92
2019-05-05T06:15:33.757Z,6.92
2019-05-05T06:16:34.073Z,6.89
2019-05-05T06:17:34.156Z,6.89
2019-05-05T06:18:34.324Z,7.03
2019-05-05T06:19:33.919Z,7.01
2019-05-05T06:20:34.178Z,7.10
2019-05-05T06:21:33.798Z,7.06
2019-05-05T06:22:33.865Z,6.97
2019-05-05T06:23:34.222Z,7.13
2019-05-05T06:24:32.073Z,7.10
2019-05-05T06:25:34.283Z,7.08
2019-05-05T06:26:33.732Z,7.11
2019-05-05T06:27:34.206Z,7.13
2019-05-05T06:28:34.032Z,7.08
2019-05-05T06:29:34.340Z,7.25
2019-05-05T06:30:33.676Z,7.24
2019-05-05T06:31:34.110Z,7.22
2019-05-05T06:32:34.132Z,7.33
2019-05-05T06:33:31.984Z,7.28
2019-05-05T06:34:33.700Z,7.36
2019-05-05T06:35:33.762Z,7.31
2019-05-05T06:36:33.871Z,7.31
2019-05-05T06:37:34.118Z,7.33
2019-05-05T06:38:31.938Z,7.26
2019-05-05T06:39:33.501Z,7.34
2019-05-05T06:40:34.090Z,7.21
2019-05-05T06:41:31.904Z,7.29
2019-05-05T06:42:31.897Z,7.21
2019-05-05T06:43:31.889Z,7.25
2019-05-05T06:44:33.890Z,7.25
2019-05-05T06:45:34.178Z,7.18
2019-05-05T06:46:34.108Z,7.19
2019-05-05T06:47:33.884Z,7.25
2019-05-05T06:48:31.841Z,7.28
2019-05-05T06:49:31.835Z,7.26
2019-05-05T06:50:31.824Z,7.43
2019-05-05T06:51:33.560Z,7.43
2019-05-05T06:52:43.769Z,7.46
2019-05-05T06:53:31.790Z,7.46
2019-05-05T06:54:31.782Z,7.57
2019-05-05T06:55:33.623Z,7.57
2019-05-05T06:56:31.764Z,7.58
2019-05-05T06:57:31.754Z,7.68
2019-05-05T06:58:31.744Z,7.66
2019-05-05T06:59:31.736Z,7.73
2019-05-05T07:00:31.726Z,7.76
2019-05-05T07:01:33.680Z,7.81
2019-05-05T07:02:31.713Z,7.94
2019-05-05T07:03:33.474Z,7.96
2019-05-05T07:04:33.807Z,8.02
2019-05-05T07:05:31.679Z,8.05
2019-05-05T07:06:31.666Z,8.04
2019-05-05T07:07:31.661Z,8.10
2019-05-05T07:08:31.656Z,8.10
2019-05-05T07:09:33.475Z,8.20
2019-05-05T07:10:33.722Z,8.13
2019-05-05T07:11:31.622Z,8.16
2019-05-05T07:12:31.613Z,8.12
2019-05-05T07:13:33.754Z,8.16
2019-05-05T07:14:33.847Z,8.17
2019-05-05T07:15:31.591Z,8.17
2019-05-05T07:16:31.580Z,8.09
2019-05-05T07:17:33.680Z,8.12
2019-05-05T07:18:31.559Z,8.01
2019-05-05T07:19:31.552Z,8.14
2019-05-05T07:20:31.547Z,8.01
2019-05-05T07:21:31.538Z,8.09
2019-05-05T07:22:31.527Z,8.12
2019-05-05T07:23:31.515Z,8.05
2019-05-05T07:24:31.509Z,7.88
2019-05-05T07:25:42.072Z,7.87
2019-05-05T07:26:31.488Z,7.94
2019-05-05T07:27:33.660Z,7.92
2019-05-05T07:28:31.472Z,7.87
2019-05-05T07:29:31.463Z,7.88
2019-05-05T07:30:33.408Z,7.95
2019-05-05T07:31:31.441Z,7.98
2019-05-05T07:32:33.680Z,8.10
2019-05-05T07:33:31.426Z,8.10
2019-05-05T07:34:33.411Z,8.13
2019-05-05T07:35:31.407Z,8.26
2019-05-05T07:36:31.397Z,8.37
2019-05-05T07:37:31.386Z,8.38
2019-05-05T07:38:33.600Z,8.42
2019-05-05T07:39:31.373Z,8.44
2019-05-05T07:40:31.365Z,8.53
2019-05-05T07:41:31.353Z,8.59
2019-05-05T07:42:33.424Z,8.68
2019-05-05T07:43:31.339Z,8.77
2019-05-05T07:44:33.750Z,8.85
2019-05-05T07:45:31.317Z,8.78
2019-05-05T07:46:31.308Z,8.88
2019-05-05T07:47:31.301Z,8.85
2019-05-05T07:48:33.467Z,8.81
2019-05-05T07:49:33.463Z,8.92
2019-05-05T07:50:32.621Z,8.83
2019-05-05T07:51:33.440Z,8.95
2019-05-05T07:52:31.265Z,8.80
2019-05-05T07:53:33.383Z,8.92
2019-05-05T07:54:31.242Z,8.93
2019-05-05T07:55:31.230Z,8.92
2019-05-05T07:56:31.221Z,8.80
2019-05-05T07:57:31.214Z,8.92
2019-05-05T07:58:31.205Z,8.85
2019-05-05T07:59:31.201Z,8.78
2019-05-05T08:00:31.192Z,8.88
2019-05-05T08:01:33.063Z,8.80
2019-05-05T08:02:31.174Z,8.81
2019-05-05T08:03:31.163Z,8.80
2019-05-05T08:04:31.155Z,8.63
2019-05-05T08:05:31.148Z,8.55
2019-05-05T08:06:31.139Z,8.57
2019-05-05T08:07:31.128Z,8.52
2019-05-05T08:08:31.121Z,8.41
2019-05-05T08:09:31.112Z,8.37
2019-05-05T08:10:31.103Z,8.37
2019-05-05T08:11:31.096Z,8.28
2019-05-05T08:12:31.088Z,8.29
2019-05-05T08:13:31.082Z,8.31
2019-05-05T08:14:31.072Z,8.28
2019-05-05T08:15:31.059Z,8.31
2019-05-05T08:16:31.050Z,8.31
2019-05-05T08:17:31.047Z,8.34
2019-05-05T08:18:31.033Z,8.41
2019-05-05T08:19:31.026Z,8.34
2019-05-05T08:20:31.019Z,8.35
2019-05-05T08:21:31.004Z,8.47
2019-05-05T08:22:31.004Z,8.50
2019-05-05T08:23:32.792Z,8.60
2019-05-05T08:24:30.984Z,8.71
2019-05-05T08:25:37.551Z,8.81
2019-05-05T08:26:30.968Z,8.83
2019-05-05T08:27:30.953Z,8.96
2019-05-05T08:28:30.944Z,8.98
2019-05-05T08:29:30.934Z,8.99
2019-05-05T08:30:30.928Z,9.08
2019-05-05T08:31:30.923Z,9.12
2019-05-05T08:32:32.779Z,9.06
2019-05-05T08:33:30.906Z,9.14
2019-05-05T08:34:30.891Z,9.08
2019-05-05T08:35:30.885Z,9.03
2019-05-05T08:36:30.879Z,9.08
2019-05-05T08:37:30.872Z,8.95
2019-05-05T08:38:34.608Z,8.95
2019-05-05T08:39:30.878Z,9.08
2019-05-05T08:40:30.848Z,9.08
2019-05-05T08:41:30.832Z,9.11
2019-05-05T08:42:30.827Z,9.27
2019-05-05T08:43:30.825Z,9.22
2019-05-05T08:44:30.815Z,9.33
2019-05-05T08:45:30.810Z,9.27
2019-05-05T08:46:30.798Z,9.37
2019-05-05T08:47:30.784Z,9.36
2019-05-05T08:48:30.777Z,9.50
2019-05-05T08:49:30.768Z,9.54
2019-05-05T08:50:30.761Z,9.55
2019-05-05T08:51:30.758Z,9.62
2019-05-05T08:52:30.748Z,9.70
2019-05-05T08:53:41.600Z,9.72
2019-05-05T08:54:30.728Z,9.84
2019-05-05T08:55:30.734Z,9.84
2019-05-05T08:56:30.723Z,10.02
2019-05-05T08:57:30.708Z,10.31
2019-05-05T08:58:30.702Z,10.45
2019-05-05T08:59:30.689Z,10.58
2019-05-05T09:00:30.682Z,10.68
2019-05-05T09:01:30.683Z,10.67
2019-05-05T09:02:33.165Z,10.72
2019-05-05T09:03:30.667Z,10.93
2019-05-05T09:04:30.660Z,11.08
2019-05-05T09:05:30.659Z,11.12
2019-05-05T09:06:30.648Z,11.16
2019-05-05T09:07:30.633Z,11.08
2019-05-05T09:08:30.626Z,11.05
2019-05-05T09:09:30.627Z,11.03
2019-05-05T09:10:30.617Z,10.98
2019-05-05T09:11:30.607Z,11.01
2019-05-05T09:12:30.602Z,11.03
2019-05-05T09:13:30.593Z,11.05
2019-05-05T09:14:30.586Z,11.27
2019-05-05T09:15:30.584Z,11.20
2019-05-05T09:16:30.579Z,11.27
2019-05-05T09:17:30.570Z,11.25
2019-05-05T09:18:30.565Z,11.19
2019-05-05T09:19:30.563Z,11.19
2019-05-05T09:20:30.550Z,11.23
2019-05-05T09:21:30.545Z,11.28
2019-05-05T09:22:30.538Z,11.27
2019-05-05T09:23:30.542Z,11.27
2019-05-05T09:24:30.527Z,11.16
2019-05-05T09:25:30.515Z,11.22
2019-05-05T09:26:30.508Z,11.19
2019-05-05T09:27:30.510Z,11.20
2019-05-05T09:28:30.502Z,11.15
2019-05-05T09:29:30.499Z,11.15
2019-05-05T09:30:30.488Z,11.22
2019-05-05T09:31:30.478Z,11.27
2019-05-05T09:32:30.470Z,11.46
2019-05-05T09:33:30.462Z,11.49
2019-05-05T09:34:30.461Z,11.66
2019-05-05T09:35:30.456Z,11.74
2019-05-05T09:36:30.450Z,11.76
2019-05-05T09:37:30.444Z,11.85
2019-05-05T09:38:30.444Z,11.97
2019-05-05T09:39:30.428Z,11.97
2019-05-05T09:40:30.424Z,12.07
2019-05-05T09:41:30.417Z,12.18
2019-05-05T09:42:34.082Z,12.13
2019-05-05T09:43:30.401Z,12.07
2019-05-05T09:44:30.404Z,12.07
2019-05-05T09:45:30.393Z,12.08
2019-05-05T09:46:30.383Z,12.13
2019-05-05T09:47:30.381Z,12.23
2019-05-05T09:48:30.374Z,12.29
2019-05-05T09:49:30.369Z,12.23
2019-05-05T09:50:30.364Z,12.26
2019-05-05T09:51:30.355Z,12.38
2019-05-05T09:52:30.353Z,12.43
2019-05-05T09:53:30.348Z,12.50
2019-05-05T09:54:30.367Z,12.50
2019-05-05T09:55:30.350Z,12.46
2019-05-05T09:56:30.335Z,12.62
2019-05-05T09:57:30.322Z,12.65
2019-05-05T09:58:30.317Z,12.68
2019-05-05T09:59:30.313Z,12.65
2019-05-05T10:00:30.308Z,12.65
2019-05-05T10:01:30.304Z,12.76
2019-05-05T10:02:30.300Z,12.63
2019-05-05T10:03:30.293Z,12.66
2019-05-05T10:04:30.289Z,12.66
2019-05-05T10:05:30.280Z,12.69
2019-05-05T10:06:30.269Z,12.66
2019-05-05T10:07:30.272Z,12.61
2019-05-05T10:08:30.271Z,12.62
2019-05-05T10:09:30.255Z,12.62
2019-05-05T10:10:30.257Z,12.50
2019-05-05T10:11:30.247Z,12.44
2019-05-05T10:12:30.244Z,12.36
2019-05-05T10:13:30.240Z,12.22
2019-05-05T10:14:33.976Z,12.17
2019-05-05T10:15:30.231Z,12.17
2019-05-05T10:16:30.236Z,12.14
2019-05-05T10:17:30.219Z,12.11
2019-05-05T10:18:30.216Z,12.08
2019-05-05T10:19:30.210Z,12.08
2019-05-05T10:20:30.205Z,11.99
2019-05-05T10:21:30.197Z,12.10
2019-05-05T10:22:30.193Z,12.15
2019-05-05T10:23:30.183Z,12.35
2019-05-05T10:24:31.078Z,12.32
2019-05-05T10:25:30.172Z,12.23
2019-05-05T10:26:30.167Z,12.14
2019-05-05T10:27:42.639Z,12.04
2019-05-05T10:28:30.165Z,11.87
2019-05-05T10:29:30.166Z,11.74
2019-05-05T10:30:30.141Z,11.64
2019-05-05T10:31:30.136Z,11.55
2019-05-05T10:32:30.135Z,11.51
2019-05-05T10:33:30.132Z,11.40
2019-05-05T10:34:30.131Z,11.41
2019-05-05T10:35:30.115Z,11.30
2019-05-05T10:36:30.110Z,11.15
2019-05-05T10:37:30.100Z,11.12
2019-05-05T10:38:30.090Z,11.08
2019-05-05T10:39:30.087Z,10.98
2019-05-05T10:40:30.085Z,11.04
2019-05-05T10:41:30.079Z,11.08
2019-05-05T10:42:30.074Z,11.11
2019-05-05T10:43:30.065Z,11.16
2019-05-05T10:44:30.058Z,11.23
2019-05-05T10:45:30.049Z,11.19
2019-05-05T10:46:30.047Z,11.23
2019-05-05T10:47:30.038Z,11.19
2019-05-05T10:48:30.034Z,11.30
2019-05-05T10:49:30.023Z,11.15
2019-05-05T10:50:30.017Z,11.31
2019-05-05T10:51:31.774Z,11.28
2019-05-05T10:52:30.007Z,11.38
2019-05-05T10:53:30.000Z,11.45
2019-05-05T10:54:41.597Z,11.49
2019-05-05T10:55:29.986Z,11.56
2019-05-05T10:56:29.979Z,11.56
2019-05-05T10:57:33.952Z,11.55
2019-05-05T10:58:29.962Z,11.56
2019-05-05T10:59:29.956Z,11.69
2019-05-05T11:00:29.956Z,11.74
2019-05-05T11:01:29.943Z,11.79
2019-05-05T11:02:29.944Z,11.77
2019-05-05T11:03:29.937Z,11.79
2019-05-05T11:04:29.930Z,11.80
2019-05-05T11:05:29.921Z,11.89
2019-05-05T11:06:29.917Z,11.84
2019-05-05T11:07:34.006Z,11.85
2019-05-05T11:08:30.841Z,12.00
2019-05-05T11:09:29.888Z,12.08
2019-05-05T11:10:29.882Z,12.11
2019-05-05T11:11:29.882Z,12.32
2019-05-05T11:12:29.875Z,12.33
2019-05-05T11:13:29.864Z,12.41
2019-05-05T11:14:29.858Z,12.46
2019-05-05T11:15:33.539Z,12.44
2019-05-05T11:16:31.785Z,12.32
2019-05-05T11:17:29.839Z,12.28
2019-05-05T11:18:34.348Z,12.08
2019-05-05T11:19:29.821Z,12.05
2019-05-05T11:20:29.817Z,12.10
2019-05-05T11:21:29.807Z,12.14
2019-05-05T11:22:29.799Z,12.14
2019-05-05T11:23:31.288Z,12.26
2019-05-05T11:24:31.290Z,12.30
2019-05-05T11:25:31.289Z,12.21
2019-05-05T11:26:29.783Z,12.25
2019-05-05T11:27:30.771Z,12.38
2019-05-05T11:28:37.290Z,12.38
2019-05-05T11:29:31.290Z,12.41
2019-05-05T11:30:29.752Z,12.53
2019-05-05T11:31:29.749Z,12.46
2019-05-05T11:32:29.758Z,12.38
2019-05-05T11:33:29.732Z,12.43
2019-05-05T11:34:29.726Z,12.48
2019-05-05T11:35:29.723Z,12.59
2019-05-05T11:36:29.727Z,12.65
2019-05-05T11:37:29.712Z,12.88
2019-05-05T11:38:29.709Z,13.01
2019-05-05T11:39:29.691Z,12.95
2019-05-05T11:40:29.690Z,12.96
2019-05-05T11:41:29.690Z,12.98
2019-05-05T11:42:29.679Z,12.91
2019-05-05T11:43:29.676Z,12.88
2019-05-05T11:44:29.671Z,12.88
2019-05-05T11:45:29.671Z,12.95
2019-05-05T11:46:29.658Z,12.79
2019-05-05T11:47:29.647Z,12.87
2019-05-05T11:48:30.642Z,12.91
2019-05-05T11:49:29.638Z,12.91
2019-05-05T11:50:30.542Z,12.86
2019-05-05T11:51:29.623Z,12.99
2019-05-05T11:52:29.688Z,12.84
2019-05-05T11:53:29.603Z,12.96
2019-05-05T11:54:29.673Z,12.98
2019-05-05T11:55:31.304Z,12.98
2019-05-05T11:56:29.598Z,12.98
2019-05-05T11:57:29.593Z,12.95
2019-05-05T11:58:31.305Z,12.91
2019-05-05T11:59:29.577Z,12.88
2019-05-05T12:00:29.572Z,12.90
2019-05-05T12:01:29.565Z,12.86
2019-05-05T12:02:29.560Z,12.93
2019-05-05T12:03:29.556Z,12.84
2019-05-05T12:04:29.552Z,12.98
2019-05-05T12:05:29.541Z,13.02
2019-05-05T12:06:29.534Z,13.09
2019-05-05T12:07:29.532Z,13.01
2019-05-05T12:08:29.526Z,13.04
2019-05-05T12:09:29.520Z,13.13
2019-05-05T12:10:29.514Z,13.06
2019-05-05T12:11:29.504Z,13.01
2019-05-05T12:12:29.499Z,12.95
2019-05-05T12:13:29.490Z,12.80
2019-05-05T12:14:29.490Z,12.87
2019-05-05T12:15:29.482Z,12.90
2019-05-05T12:16:29.478Z,12.88
2019-05-05T12:17:29.471Z,12.90
2019-05-05T12:18:29.465Z,12.80
2019-05-05T12:19:29.455Z,12.90
2019-05-05T12:20:29.456Z,12.80
2019-05-05T12:21:29.450Z,12.80
2019-05-05T12:22:29.440Z,12.80
2019-05-05T12:23:29.432Z,12.86
2019-05-05T12:24:29.421Z,12.95
2019-05-05T12:25:29.417Z,12.90
2019-05-05T12:26:29.415Z,12.93
2019-05-05T12:27:29.410Z,12.96
2019-05-05T12:28:29.398Z,12.98
2019-05-05T12:29:29.399Z,13.11
2019-05-05T12:30:29.391Z,13.13
2019-05-05T12:31:29.384Z,12.95
2019-05-05T12:32:29.379Z,12.86
2019-05-05T12:33:29.372Z,12.84
2019-05-05T12:34:29.361Z,12.80
2019-05-05T12:35:29.355Z,12.91
2019-05-05T12:36:29.349Z,12.98
2019-05-05T12:37:31.324Z,13.11
2019-05-05T12:38:29.341Z,13.05
2019-05-05T12:39:29.330Z,13.11
2019-05-05T12:40:29.329Z,13.23
2019-05-05T12:41:29.316Z,13.23
2019-05-05T12:42:29.308Z,13.26
2019-05-05T12:43:29.307Z,13.39
2019-05-05T12:44:29.312Z,13.32
2019-05-05T12:45:29.304Z,13.57
2019-05-05T12:46:29.292Z,13.60
2019-05-05T12:47:29.293Z,13.64
2019-05-05T12:48:29.274Z,13.72
2019-05-05T12:49:29.268Z,13.86
2019-05-05T12:50:29.260Z,13.83
2019-05-05T12:51:29.264Z,14.01
2019-05-05T12:52:29.257Z,13.96
2019-05-05T12:53:29.247Z,13.93
2019-05-05T12:54:29.242Z,13.83
2019-05-05T12:55:39.161Z,13.76
2019-05-05T12:56:29.234Z,13.67
2019-05-05T12:57:29.227Z,13.64
2019-05-05T12:58:29.220Z,13.60
2019-05-05T12:59:29.211Z,13.51
2019-05-05T13:00:29.206Z,13.45
2019-05-05T13:01:29.202Z,13.24
2019-05-05T13:02:29.195Z,13.13
2019-05-05T13:03:29.192Z,12.96
2019-05-05T13:04:29.190Z,12.80
2019-05-05T13:05:29.187Z,12.73
2019-05-05T13:06:29.174Z,12.53
2019-05-05T13:07:29.163Z,12.50
2019-05-05T13:08:29.162Z,12.41
2019-05-05T13:09:29.155Z,12.35